Time;durP1;ratioP1;P1;durP2;ratioP2;P2;SDS_P1;SDS_P2;PMS_P1;PMS_P2;Temp;Humidity;BMP_temperature;BMP_pressure;BME280_temperature;BME280_humidity;BME280_pressure;Samples;Min_cycle;Max_cycle;Signal;HPM_P1;HPM_P2
2023/08/02 00:02:20;;;;;;;2.00;1.00;;;27.30;43.70;;;;;;6105052;29;20036;-79
2023/08/02 00:05:20;;;;;;;2.17;1.13;;;27.30;43.10;;;;;;6089606;29;20085;-77
2023/08/02 00:08:22;;;;;;;6.55;1.33;;;27.30;43.20;;;;;;6097142;29;20044;-77
2023/08/02 00:11:23;;;;;;;1.10;0.80;;;27.30;43.20;;;;;;6128491;29;20141;-78
2023/08/02 00:14:24;;;;;;;0.95;0.70;;;27.30;43.20;;;;;;6130209;29;20401;-78
2023/08/02 00:17:24;;;;;;;1.40;0.98;;;27.30;43.20;;;;;;6131095;29;20047;-79
2023/08/02 00:20:25;;;;;;;2.40;1.00;;;27.30;43.30;;;;;;6128092;29;20562;-77
2023/08/02 00:23:26;;;;;;;1.55;1.13;;;27.20;43.40;;;;;;6139540;29;20120;-77
2023/08/02 00:26:27;;;;;;;2.35;1.20;;;27.20;43.50;;;;;;6140168;29;20331;-76
2023/08/02 00:29:28;;;;;;;3.40;1.30;;;27.20;43.60;;;;;;6131041;29;20072;-77
2023/08/02 00:32:29;;;;;;;2.58;1.02;;;27.20;43.60;;;;;;6111370;29;20031;-77
2023/08/02 00:35:30;;;;;;;1.15;1.00;;;27.20;43.60;;;;;;6127792;29;20548;-78
2023/08/02 00:38:31;;;;;;;1.42;1.08;;;27.20;43.60;;;;;;6125515;29;20113;-77
2023/08/02 00:41:32;;;;;;;1.17;0.73;;;27.20;43.60;;;;;;6125149;29;20422;-77
2023/08/02 00:44:33;;;;;;;1.52;1.02;;;27.20;43.60;;;;;;6124913;29;20035;-78
2023/08/02 00:47:35;;;;;;;2.30;1.27;;;27.20;43.50;;;;;;6123771;29;20040;-77
2023/08/02 00:50:37;;;;;;;6.38;1.48;;;27.20;43.60;;;;;;6124118;29;20028;-77
2023/08/02 00:53:38;;;;;;;1.70;1.08;;;27.20;43.60;;;;;;6115106;29;20036;-78
2023/08/02 00:56:39;;;;;;;1.55;0.77;;;27.20;43.60;;;;;;6092049;29;20452;-77
2023/08/02 00:59:40;;;;;;;1.88;1.23;;;27.20;43.70;;;;;;6108826;29;20043;-77
2023/08/02 01:02:41;;;;;;;2.13;1.27;;;27.20;43.60;;;;;;6107703;29;20058;-77
2023/08/02 01:05:56;;;;;;;1.67;1.20;;;27.10;43.70;;;;;;6123749;29;20452;-77
2023/08/02 01:09:45;;;;;;;1.20;0.80;;;27.10;43.70;;;;;;6108777;29;20046;-76
2023/08/02 01:12:50;;;;;;;1.80;1.17;;;27.10;43.70;;;;;;6060528;29;20048;-76
2023/08/02 01:15:50;;;;;;;1.33;1.05;;;27.10;43.70;;;;;;6063122;29;20040;-77
2023/08/02 01:18:51;;;;;;;1.50;0.85;;;27.10;44.30;;;;;;6045835;29;20517;-77
2023/08/02 01:21:52;;;;;;;2.58;1.05;;;27.10;43.70;;;;;;6077489;29;20044;-77
2023/08/02 01:24:53;;;;;;;2.55;1.08;;;27.00;43.70;;;;;;6077666;29;20138;-78
2023/08/02 01:27:59;;;;;;;2.47;1.30;;;27.00;43.80;;;;;;6062710;29;20120;-77
2023/08/02 01:31:02;;;;;;;16.40;1.10;;;26.90;43.70;;;;;;6061569;29;20033;-78
2023/08/02 01:34:04;;;;;;;1.38;1.02;;;26.90;43.70;;;;;;6062193;29;20044;-76
2023/08/02 01:37:06;;;;;;;1.25;0.90;;;26.90;43.80;;;;;;6060062;29;20549;-77
2023/08/02 01:40:07;;;;;;;1.58;1.02;;;26.90;44.00;;;;;;6078453;29;20163;-77
2023/08/02 01:43:08;;;;;;;2.88;1.15;;;26.90;44.10;;;;;;6062165;29;20490;-77
2023/08/02 01:46:09;;;;;;;4.05;1.20;;;26.80;44.30;;;;;;6080858;29;20102;-79
2023/08/02 01:49:09;;;;;;;2.40;1.30;;;26.80;44.50;;;;;;6126731;29;20028;-76
2023/08/02 01:52:10;;;;;;;1.38;1.02;;;26.70;44.60;;;;;;6126482;29;20031;-76
2023/08/02 01:55:11;;;;;;;3.38;1.27;;;26.70;44.90;;;;;;6110385;29;20024;-78
2023/08/02 01:58:12;;;;;;;2.17;1.10;;;26.70;45.10;;;;;;6109283;29;20087;-77
2023/08/02 02:01:13;;;;;;;1.88;1.05;;;26.70;45.20;;;;;;6109462;29;20042;-77
2023/08/02 02:04:13;;;;;;;1.58;1.00;;;26.70;45.20;;;;;;6110511;29;20694;-78
2023/08/02 02:07:17;;;;;;;2.38;1.30;;;26.70;45.20;;;;;;6108501;29;20031;-75
2023/08/02 02:10:18;;;;;;;2.55;1.10;;;26.70;45.50;;;;;;6108277;29;20027;-76
2023/08/02 02:13:20;;;;;;;1.33;0.93;;;26.60;45.40;;;;;;6109479;29;20060;-77
2023/08/02 02:16:21;;;;;;;3.65;1.23;;;26.60;45.30;;;;;;6109042;29;20032;-77
2023/08/02 02:19:22;;;;;;;3.58;1.15;;;26.70;45.40;;;;;;6109943;29;20141;-77
2023/08/02 02:22:23;;;;;;;2.60;1.02;;;26.70;45.30;;;;;;6109705;29;20500;-76
2023/08/02 02:25:24;;;;;;;2.10;0.95;;;26.70;45.30;;;;;;6125593;29;20032;-79
2023/08/02 02:28:24;;;;;;;1.80;1.13;;;26.70;45.30;;;;;;6108342;29;20035;-78
2023/08/02 02:31:25;;;;;;;2.75;1.23;;;26.70;45.30;;;;;;6107512;29;20489;-77
2023/08/02 02:34:26;;;;;;;2.00;1.02;;;26.60;45.20;;;;;;6124032;29;20040;-77
2023/08/02 02:37:28;;;;;;;2.45;1.33;;;26.60;45.10;;;;;;6110180;29;20113;-77
2023/08/02 02:40:29;;;;;;;3.92;1.48;;;26.60;45.20;;;;;;6111470;29;20714;-78
2023/08/02 02:43:29;;;;;;;2.05;0.77;;;26.60;45.30;;;;;;6109369;29;20031;-79
2023/08/02 02:46:30;;;;;;;2.30;1.10;;;26.50;45.30;;;;;;6109008;29;20357;-77
2023/08/02 02:49:31;;;;;;;2.55;1.20;;;26.60;45.90;;;;;;6127237;29;20134;-77
2023/08/02 02:52:33;;;;;;;2.72;1.15;;;26.50;45.20;;;;;;6108318;29;20042;-77
2023/08/02 02:55:34;;;;;;;1.90;0.82;;;26.50;45.30;;;;;;6108983;29;20053;-77
2023/08/02 02:58:34;;;;;;;1.88;1.15;;;26.50;45.40;;;;;;6093141;29;20043;-78
2023/08/02 03:01:35;;;;;;;3.08;1.48;;;26.40;45.50;;;;;;6126942;29;20028;-78
2023/08/02 03:04:36;;;;;;;3.03;0.98;;;26.30;45.50;;;;;;6108700;29;20587;-77
2023/08/02 03:07:37;;;;;;;2.97;1.20;;;26.30;45.60;;;;;;6107960;29;20379;-76
2023/08/02 03:10:37;;;;;;;2.20;1.25;;;26.30;45.60;;;;;;6125991;29;20119;-77
2023/08/02 03:13:39;;;;;;;2.65;0.88;;;26.30;45.50;;;;;;6110182;29;20046;-77
2023/08/02 03:16:43;;;;;;;1.08;0.60;;;26.20;45.50;;;;;;6110718;29;20496;-77
2023/08/02 03:19:43;;;;;;;1.77;1.05;;;26.20;45.50;;;;;;6110114;29;20097;-79
2023/08/02 03:22:44;;;;;;;1.80;1.35;;;26.20;45.50;;;;;;6110646;29;20042;-77
2023/08/02 03:25:45;;;;;;;1.60;0.90;;;26.20;45.50;;;;;;6123992;29;20058;-76
2023/08/02 03:28:46;;;;;;;1.05;0.88;;;26.10;45.50;;;;;;6108324;29;20028;-76
2023/08/02 03:31:46;;;;;;;2.42;1.10;;;26.10;45.50;;;;;;6107489;29;20067;-77
2023/08/02 03:34:47;;;;;;;4.28;1.30;;;26.10;45.50;;;;;;6125322;29;20062;-77
2023/08/02 03:37:48;;;;;;;3.38;1.05;;;26.10;45.50;;;;;;6125841;29;20043;-78
2023/08/02 03:40:49;;;;;;;2.58;1.08;;;26.10;45.50;;;;;;6127409;29;20126;-78
2023/08/02 03:43:50;;;;;;;4.95;1.20;;;26.10;45.50;;;;;;6129874;29;20108;-79
2023/08/02 03:46:51;;;;;;;1.42;0.98;;;26.10;45.40;;;;;;6133658;29;20047;-78
2023/08/02 03:49:51;;;;;;;2.20;1.13;;;26.10;45.50;;;;;;6116987;29;20046;-77
2023/08/02 03:52:53;;;;;;;1.98;1.00;;;26.10;45.50;;;;;;6126672;29;20119;-79
2023/08/02 03:55:53;;;;;;;1.23;0.88;;;26.00;45.50;;;;;;6107390;29;20044;-79
2023/08/02 03:58:54;;;;;;;1.40;0.95;;;26.00;45.70;;;;;;6125821;29;20079;-76
2023/08/02 04:01:55;;;;;;;2.55;1.23;;;26.00;45.80;;;;;;6125814;29;20074;-78
2023/08/02 04:04:56;;;;;;;2.45;1.05;;;25.90;46.50;;;;;;6107165;29;20044;-78
2023/08/02 04:07:56;;;;;;;1.45;0.77;;;25.90;46.50;;;;;;6124978;29;20067;-77
2023/08/02 04:11:04;;;;;;;1.30;1.00;;;25.90;46.00;;;;;;6124670;29;20039;-77
2023/08/02 04:14:05;;;;;;;3.28;1.02;;;25.90;46.20;;;;;;6126996;29;20036;-77
2023/08/02 04:17:05;;;;;;;1.35;1.05;;;25.80;46.20;;;;;;6107528;29;20119;-77
2023/08/02 04:20:07;;;;;;;1.17;0.88;;;25.80;46.30;;;;;;6125164;29;20044;-77
2023/08/02 04:23:08;;;;;;;1.67;1.05;;;25.80;46.10;;;;;;6123874;29;20397;-78
2023/08/02 04:26:10;;;;;;;2.35;1.10;;;25.80;46.60;;;;;;6125905;29;20035;-77
2023/08/02 04:29:10;;;;;;;3.03;1.00;;;25.70;46.80;;;;;;6126978;29;20131;-77
2023/08/02 04:32:11;;;;;;;2.70;1.20;;;25.70;47.00;;;;;;6107990;29;20126;-78
2023/08/02 04:35:12;;;;;;;1.30;0.90;;;25.70;47.20;;;;;;6110692;29;20048;-77
2023/08/02 04:38:13;;;;;;;3.10;0.98;;;25.60;47.20;;;;;;6129511;29;20046;-77
2023/08/02 04:41:15;;;;;;;2.58;1.27;;;25.60;47.20;;;;;;6110711;29;20035;-77
2023/08/02 04:44:16;;;;;;;2.10;0.85;;;25.60;47.20;;;;;;6129417;29;20110;-77
2023/08/02 04:47:17;;;;;;;3.88;1.23;;;25.50;47.20;;;;;;6128632;29;20032;-78
2023/08/02 04:50:17;;;;;;;3.45;1.40;;;25.50;47.20;;;;;;6110857;29;20670;-78
2023/08/02 04:53:18;;;;;;;4.47;1.67;;;25.50;47.20;;;;;;6128213;29;20050;-76
2023/08/02 04:56:19;;;;;;;4.18;1.48;;;25.50;47.30;;;;;;6127202;29;20039;-78
2023/08/02 04:59:21;;;;;;;1.73;1.02;;;25.40;47.20;;;;;;6128900;29;20032;-77
2023/08/02 05:02:26;;;;;;;3.63;1.17;;;25.40;47.20;;;;;;6094835;29;20130;-78
2023/08/02 05:05:26;;;;;;;3.85;1.10;;;25.30;47.10;;;;;;6110455;29;20193;-77
2023/08/02 05:08:32;;;;;;;1.77;1.10;;;25.30;47.10;;;;;;6110919;29;20500;-78
2023/08/02 05:11:33;;;;;;;1.85;1.10;;;25.30;47.20;;;;;;6111692;29;20408;-78
2023/08/02 05:14:34;;;;;;;3.10;1.20;;;25.30;47.20;;;;;;6095846;29;20047;-78
2023/08/02 05:17:35;;;;;;;3.03;1.60;;;25.30;47.20;;;;;;6127248;29;20044;-77
2023/08/02 05:20:35;;;;;;;5.03;1.45;;;25.30;47.20;;;;;;6127854;29;20050;-77
2023/08/02 05:23:36;;;;;;;4.03;1.30;;;25.30;47.20;;;;;;6109735;29;20040;-77
2023/08/02 05:26:38;;;;;;;2.30;0.95;;;25.30;47.30;;;;;;6110924;29;20059;-78
2023/08/02 05:29:38;;;;;;;2.20;1.13;;;25.30;47.30;;;;;;6128876;29;20050;-77
2023/08/02 05:32:39;;;;;;;2.97;1.20;;;25.30;47.30;;;;;;6095924;29;20583;-79
2023/08/02 05:35:40;;;;;;;6.10;1.27;;;25.30;47.50;;;;;;6128695;29;20512;-78
2023/08/02 05:38:41;;;;;;;2.85;1.30;;;25.30;47.60;;;;;;6128075;29;20496;-78
2023/08/02 05:41:42;;;;;;;1.45;1.13;;;25.30;47.60;;;;;;6127685;29;20046;-76
2023/08/02 05:44:43;;;;;;;2.10;1.13;;;25.30;47.70;;;;;;6092950;29;20028;-77
2023/08/02 05:47:43;;;;;;;5.35;1.33;;;25.30;47.80;;;;;;6108791;29;20055;-78
2023/08/02 05:50:44;;;;;;;3.80;1.38;;;25.30;47.70;;;;;;6111060;29;20042;-78
2023/08/02 05:53:45;;;;;;;7.47;1.30;;;25.40;47.60;;;;;;6108716;29;20036;-77
2023/08/02 05:56:46;;;;;;;1.95;0.95;;;25.50;47.40;;;;;;6104315;29;20046;-76
2023/08/02 05:59:49;;;;;;;3.25;1.45;;;25.50;47.20;;;;;;6103692;29;20494;-77
2023/08/02 06:02:49;;;;;;;9.55;1.70;;;25.50;47.00;;;;;;6087111;29;20430;-77
2023/08/02 06:05:50;;;;;;;2.75;1.63;;;25.60;47.10;;;;;;6085729;29;20112;-77
2023/08/02 06:08:51;;;;;;;1.35;1.02;;;25.60;47.30;;;;;;6087420;29;20036;-78
2023/08/02 06:11:52;;;;;;;2.28;1.30;;;25.60;47.20;;;;;;6087036;29;20062;-78
2023/08/02 06:14:52;;;;;;;2.85;1.30;;;25.60;46.70;;;;;;6086037;29;20032;-77
2023/08/02 06:17:53;;;;;;;2.80;1.17;;;25.70;46.50;;;;;;6101715;29;20436;-78
2023/08/02 06:20:54;;;;;;;5.63;1.15;;;25.70;46.40;;;;;;6101792;29;20032;-76
2023/08/02 06:23:55;;;;;;;5.20;1.20;;;25.70;46.20;;;;;;6121355;29;20050;-78
2023/08/02 06:26:55;;;;;;;7.28;1.50;;;25.80;46.20;;;;;;6090939;29;20032;-77
2023/08/02 06:29:56;;;;;;;2.15;1.10;;;25.80;46.10;;;;;;6106959;29;20032;-78
2023/08/02 06:32:57;;;;;;;6.10;1.27;;;25.80;46.00;;;;;;6106888;29;20044;-78
2023/08/02 06:35:58;;;;;;;2.10;1.17;;;25.80;46.00;;;;;;6108487;29;20039;-78
2023/08/02 06:38:58;;;;;;;1.88;1.27;;;25.80;46.00;;;;;;6108439;29;20181;-77
2023/08/02 06:41:59;;;;;;;3.03;1.42;;;26.00;46.00;;;;;;6122749;29;20036;-77
2023/08/02 06:45:01;;;;;;;2.28;1.00;;;26.10;45.80;;;;;;6085163;29;20083;-79
2023/08/02 06:48:02;;;;;;;3.53;1.20;;;26.30;45.50;;;;;;6102710;29;20363;-77
2023/08/02 06:51:02;;;;;;;3.33;1.20;;;26.40;45.20;;;;;;6085257;29;20035;-77
2023/08/02 06:54:03;;;;;;;3.97;1.80;;;26.40;45.10;;;;;;6084735;29;20032;-78
2023/08/02 06:57:04;;;;;;;3.25;1.20;;;26.30;45.00;;;;;;6100621;29;20135;-76
2023/08/02 07:00:06;;;;;;;1.92;1.20;;;26.30;45.10;;;;;;6084046;29;20043;-77
2023/08/02 07:03:07;;;;;;;3.70;1.52;;;26.40;45.10;;;;;;6101230;29;20090;-79
2023/08/02 07:06:12;;;;;;;1.42;1.02;;;26.40;44.90;;;;;;6102658;29;20064;-77
2023/08/02 07:09:14;;;;;;;2.28;1.08;;;26.50;44.70;;;;;;6084476;29;20830;-77
2023/08/02 07:12:15;;;;;;;3.38;1.30;;;26.60;44.40;;;;;;6084706;29;20095;-78
2023/08/02 07:15:17;;;;;;;3.83;1.30;;;26.70;44.20;;;;;;6101313;29;20454;-78
2023/08/02 07:18:18;;;;;;;2.55;1.10;;;26.80;44.00;;;;;;6085393;29;20084;-77
2023/08/02 07:21:19;;;;;;;2.22;1.50;;;26.90;43.80;;;;;;6086162;29;20028;-77
2023/08/02 07:24:20;;;;;;;2.50;1.23;;;27.00;43.50;;;;;;6110036;29;20480;-78
2023/08/02 07:27:21;;;;;;;7.82;1.33;;;27.10;43.40;;;;;;6134939;29;20043;-78
2023/08/02 07:30:21;;;;;;;7.45;1.70;;;27.20;43.30;;;;;;6125097;29;20224;-79
2023/08/02 07:33:22;;;;;;;3.45;1.75;;;27.30;43.00;;;;;;6107272;29;20044;-77
2023/08/02 07:36:23;;;;;;;4.55;1.48;;;27.30;42.80;;;;;;6122730;29;20039;-78
2023/08/02 07:39:24;;;;;;;5.78;1.27;;;27.40;42.60;;;;;;6123445;29;20051;-78
2023/08/02 07:42:24;;;;;;;2.35;1.35;;;27.60;42.40;;;;;;6123602;29;20143;-77
2023/08/02 07:45:25;;;;;;;6.93;1.42;;;27.70;42.00;;;;;;6105212;29;20035;-78
2023/08/02 07:48:26;;;;;;;6.13;1.52;;;27.90;42.00;;;;;;6105629;29;20028;-80
2023/08/02 07:51:27;;;;;;;1.85;1.10;;;28.00;41.70;;;;;;6122465;29;20035;-78
2023/08/02 07:54:28;;;;;;;3.17;1.50;;;28.10;41.50;;;;;;6089003;29;20062;-77
2023/08/02 07:57:34;;;;;;;1.50;1.15;;;28.20;41.30;;;;;;6105578;29;20051;-77
2023/08/02 08:00:34;;;;;;;3.17;1.42;;;28.50;41.00;;;;;;6106048;29;20068;-76
2023/08/02 08:03:37;;;;;;;2.28;1.38;;;28.50;40.80;;;;;;6121942;29;20050;-76
2023/08/02 08:06:37;;;;;;;1.88;1.30;;;28.70;40.70;;;;;;6104892;29;20078;-77
2023/08/02 08:09:38;;;;;;;3.05;1.20;;;28.80;40.40;;;;;;6108984;29;20039;-77
2023/08/02 08:12:39;;;;;;;5.70;1.27;;;29.00;40.20;;;;;;6108829;29;20039;-77
2023/08/02 08:15:41;;;;;;;1.88;1.38;;;29.20;40.00;;;;;;6125839;29;20128;-78
2023/08/02 08:18:41;;;;;;;4.53;1.58;;;29.40;39.60;;;;;;6093669;29;20039;-78
2023/08/02 08:21:42;;;;;;;3.55;1.35;;;29.40;39.50;;;;;;6108872;29;20410;-78
2023/08/02 08:24:43;;;;;;;4.93;1.58;;;29.50;39.40;;;;;;6108339;29;20031;-78
2023/08/02 08:27:44;;;;;;;1.63;1.35;;;29.60;39.10;;;;;;6108730;29;20190;-78
2023/08/02 08:30:44;;;;;;;2.75;1.42;;;29.80;38.90;;;;;;6093336;29;20129;-77
2023/08/02 08:33:45;;;;;;;4.40;1.42;;;30.00;38.30;;;;;;6108872;29;20039;-78
2023/08/02 08:36:46;;;;;;;8.77;1.63;;;30.40;37.70;;;;;;6126449;29;20509;-78
2023/08/02 08:39:47;;;;;;;2.25;1.48;;;30.40;37.30;;;;;;6108477;29;20485;-77
2023/08/02 08:42:53;;;;;;;2.03;1.08;;;30.40;37.20;;;;;;6108851;29;20066;-78
2023/08/02 08:45:54;;;;;;;4.05;1.30;;;30.50;37.10;;;;;;6108776;29;20036;-79
2023/08/02 08:48:55;;;;;;;3.67;1.52;;;30.50;37.20;;;;;;6124782;29;20457;-77
2023/08/02 08:52:02;;;;;;;3.22;1.63;;;30.60;37.10;;;;;;6107462;29;20189;-77
2023/08/02 08:55:04;;;;;;;2.37;1.33;;;30.70;36.90;;;;;;6107315;29;20043;-76
2023/08/02 08:58:07;;;;;;;11.27;2.00;;;30.60;36.60;;;;;;6124827;29;20295;-77
2023/08/02 09:01:08;;;;;;;7.82;1.70;;;30.60;36.80;;;;;;6124946;29;20062;-77
2023/08/02 09:04:09;;;;;;;4.20;1.52;;;30.50;36.70;;;;;;6107901;29;20539;-79
2023/08/02 09:07:10;;;;;;;2.80;1.60;;;30.60;36.70;;;;;;6107296;29;20492;-77
2023/08/02 09:10:10;;;;;;;1.52;1.17;;;30.60;36.60;;;;;;6127187;29;20103;-77
2023/08/02 09:13:27;;;;;;;2.28;1.42;;;30.80;36.30;;;;;;6109756;29;20035;-77
2023/08/02 09:16:28;;;;;;;5.75;1.85;;;31.00;36.00;;;;;;6110858;29;20138;-78
2023/08/02 09:19:31;;;;;;;2.03;1.30;;;31.30;35.80;;;;;;6128028;29;20134;-78
2023/08/02 09:22:32;;;;;;;2.35;1.58;;;31.40;35.40;;;;;;6113972;29;20067;-78
2023/08/02 09:25:32;;;;;;;2.28;1.55;;;31.50;35.30;;;;;;6110173;29;20108;-77
2023/08/02 09:28:33;;;;;;;2.72;1.40;;;31.50;35.20;;;;;;6109765;29;20031;-77
2023/08/02 09:31:36;;;;;;;6.32;1.55;;;31.70;35.10;;;;;;6127408;29;20465;-78
2023/08/02 09:34:48;;;;;;;4.28;1.40;;;31.80;34.90;;;;;;6127404;29;20503;-78
2023/08/02 09:37:48;;;;;;;2.70;1.33;;;31.90;34.50;;;;;;6093637;29;20039;-77
2023/08/02 09:40:49;;;;;;;3.15;1.30;;;31.90;34.40;;;;;;6094320;29;20039;-77
2023/08/02 09:43:51;;;;;;;3.42;1.70;;;31.80;34.30;;;;;;6111261;29;20146;-78
2023/08/02 09:46:52;;;;;;;4.03;1.83;;;31.70;34.30;;;;;;6110719;29;20031;-77
2023/08/02 09:50:03;;;;;;;2.30;1.55;;;31.70;34.40;;;;;;6095106;29;20054;-77
2023/08/02 09:53:17;;;;;;;3.28;1.40;;;31.70;34.50;;;;;;6111141;29;20473;-78
2023/08/02 09:56:18;;;;;;;1.95;1.30;;;31.60;34.40;;;;;;6126604;29;20091;-78
2023/08/02 09:59:19;;;;;;;3.30;1.27;;;31.60;34.30;;;;;;6109858;29;20043;-77
2023/08/02 10:02:26;;;;;;;3.63;1.55;;;31.70;34.30;;;;;;6126796;29;20511;-80
2023/08/02 10:05:27;;;;;;;3.53;1.20;;;31.70;34.30;;;;;;6111832;29;20036;-80
2023/08/02 10:08:31;;;;;;;2.75;1.52;;;31.70;34.10;;;;;;6130439;29;20031;-80
2023/08/02 10:11:43;;;;;;;1.92;1.27;;;31.80;34.10;;;;;;6128406;29;20107;-77
2023/08/02 10:14:44;;;;;;;2.30;1.30;;;31.80;34.00;;;;;;6109863;29;20027;-78
2023/08/02 10:17:47;;;;;;;3.88;1.40;;;31.80;33.90;;;;;;6127659;29;20032;-78
2023/08/02 10:20:49;;;;;;;2.55;1.60;;;31.80;33.90;;;;;;6126884;29;20446;-78
2023/08/02 10:23:50;;;;;;;3.60;1.67;;;31.90;34.00;;;;;;6109939;29;20197;-79
2023/08/02 10:26:54;;;;;;;2.90;1.45;;;32.00;33.90;;;;;;6109336;29;20094;-78
2023/08/02 10:29:57;;;;;;;3.63;1.75;;;32.10;33.60;;;;;;6126488;29;20107;-78
2023/08/02 10:33:14;;;;;;;5.25;2.30;;;32.20;33.30;;;;;;6112929;29;20059;-82
2023/08/02 10:36:15;;;;;;;2.93;1.73;;;32.20;33.40;;;;;;6113764;29;20047;-79
2023/08/02 10:39:16;;;;;;;3.80;2.53;;;32.10;32.90;;;;;;6130765;29;20047;-80
2023/08/02 10:42:25;;;;;;;4.30;2.08;;;32.40;33.00;;;;;;6113618;29;20474;-81
2023/08/02 10:45:26;;;;;;;2.40;1.55;;;32.50;33.40;;;;;;6115513;29;20109;-79
2023/08/02 10:48:27;;;;;;;2.20;1.70;;;32.60;33.50;;;;;;6121030;29;20587;-80
2023/08/02 10:51:32;;;;;;;6.78;1.38;;;32.70;32.80;;;;;;6134106;29;20019;-82
2023/08/02 10:54:33;;;;;;;3.88;1.38;;;32.90;32.70;;;;;;6114412;29;20729;-81
2023/08/02 10:57:35;;;;;;;3.33;1.70;;;32.90;32.20;;;;;;6130809;29;20074;-81
2023/08/02 11:00:39;;;;;;;3.15;1.65;;;33.00;32.10;;;;;;6112943;29;20066;-81
2023/08/02 11:03:40;;;;;;;2.10;1.73;;;33.10;31.90;;;;;;6112953;29;20046;-80
2023/08/02 11:06:41;;;;;;;2.90;1.58;;;33.40;31.40;;;;;;6130360;29;20027;-81
2023/08/02 11:09:43;;;;;;;4.25;1.55;;;33.80;30.90;;;;;;6113882;29;20088;-80
2023/08/02 11:12:52;;;;;;;2.75;1.90;;;34.40;30.30;;;;;;6112615;29;20119;-81
2023/08/02 11:16:02;;;;;;;2.78;1.60;;;35.00;29.60;;;;;;6130028;29;20144;-80
2023/08/02 11:19:08;;;;;;;5.00;1.40;;;35.50;29.10;;;;;;6112773;29;20032;-80
2023/08/02 11:22:09;;;;;;;3.35;1.63;;;36.00;28.50;;;;;;6129959;29;20048;-81
2023/08/02 11:25:18;;;;;;;2.70;1.63;;;36.40;28.20;;;;;;6111928;29;20098;-80
2023/08/02 11:28:19;;;;;;;2.08;1.40;;;37.00;27.70;;;;;;6130050;29;20031;-80
2023/08/02 11:31:25;;;;;;;2.17;1.50;;;37.40;27.20;;;;;;6104514;29;20035;-81
2023/08/02 11:34:27;;;;;;;2.28;1.40;;;37.80;26.80;;;;;;6106888;29;20596;-81
2023/08/02 11:37:28;;;;;;;5.55;1.80;;;38.00;26.70;;;;;;6106010;29;20028;-79
2023/08/02 11:40:36;;;;;;;2.00;1.48;;;38.20;26.40;;;;;;6087839;29;20504;-79
2023/08/02 11:43:38;;;;;;;6.13;1.70;;;38.50;26.30;;;;;;6092985;29;20096;-80
2023/08/02 11:46:40;;;;;;;7.88;2.05;;;38.80;26.10;;;;;;6109983;29;20036;-80
2023/08/02 11:49:51;;;;;;;2.75;1.60;;;39.20;25.90;;;;;;6092036;29;20028;-79
2023/08/02 11:53:02;;;;;;;4.03;1.70;;;39.40;25.60;;;;;;6090367;29;20060;-78
2023/08/02 11:56:03;;;;;;;2.08;1.65;;;39.60;25.50;;;;;;6090598;29;20047;-79
2023/08/02 11:59:07;;;;;;;2.70;2.00;;;39.80;25.40;;;;;;6092536;29;20138;-79
2023/08/02 12:02:34;;;;;;;1.95;1.40;;;39.90;25.20;;;;;;6092669;29;20032;-79
2023/08/02 12:05:34;;;;;;;6.28;1.80;;;40.20;24.90;;;;;;6091076;29;20450;-79
2023/08/02 12:08:35;;;;;;;1.20;0.98;;;40.40;24.40;;;;;;6093067;29;20406;-80
2023/08/02 12:11:36;;;;;;;2.33;1.70;;;40.70;24.00;;;;;;6117090;29;20175;-80
2023/08/02 12:14:37;;;;;;;2.10;1.58;;;41.00;23.80;;;;;;6116173;29;20043;-83
2023/08/02 12:17:39;;;;;;;1.98;1.45;;;41.40;23.60;;;;;;6116976;29;20027;-81
2023/08/02 12:20:39;;;;;;;3.88;1.60;;;41.80;23.00;;;;;;6134906;29;20038;-80
2023/08/02 12:23:40;;;;;;;5.40;2.00;;;41.70;23.00;;;;;;6115375;29;20155;-83
2023/08/02 12:26:41;;;;;;;8.57;1.88;;;41.70;23.00;;;;;;6132186;29;20042;-81
2023/08/02 12:29:43;;;;;;;4.38;2.10;;;41.70;22.90;;;;;;6132881;29;20119;-80
2023/08/02 12:32:44;;;;;;;3.17;1.52;;;41.80;22.80;;;;;;6131230;29;20464;-82
2023/08/02 12:35:45;;;;;;;4.68;1.98;;;41.90;22.70;;;;;;6131121;29;20046;-80
2023/08/02 12:38:46;;;;;;;3.65;2.55;;;41.90;22.60;;;;;;6133766;29;20114;-80
2023/08/02 12:41:47;;;;;;;2.47;1.55;;;41.80;22.70;;;;;;6134767;29;20481;-80
2023/08/02 12:44:48;;;;;;;11.38;1.92;;;42.00;22.60;;;;;;6133146;29;20417;-80
2023/08/02 12:47:49;;;;;;;2.97;1.90;;;42.30;22.30;;;;;;6132710;29;20196;-81
2023/08/02 12:50:50;;;;;;;13.70;2.58;;;42.70;21.90;;;;;;6115998;29;20039;-81
2023/08/02 12:53:51;;;;;;;13.90;1.77;;;43.00;21.50;;;;;;6132597;29;20055;-80
2023/08/02 12:56:52;;;;;;;4.07;1.77;;;43.50;20.90;;;;;;6130949;29;20298;-80
2023/08/02 12:59:53;;;;;;;4.40;1.65;;;43.80;20.40;;;;;;6115105;29;20031;-81
2023/08/02 13:02:54;;;;;;;5.07;1.67;;;44.20;20.00;;;;;;6131713;29;20035;-79
2023/08/02 13:05:54;;;;;;;30.52;2.47;;;44.60;19.50;;;;;;6131007;29;20031;-80
2023/08/02 13:08:55;;;;;;;2.00;1.50;;;45.00;19.20;;;;;;6106811;29;20050;-81
2023/08/02 13:11:56;;;;;;;5.93;1.65;;;45.80;18.80;;;;;;6091374;29;20035;-82
2023/08/02 13:14:58;;;;;;;3.03;1.50;;;46.20;18.20;;;;;;6108987;29;20032;-80
2023/08/02 13:17:59;;;;;;;13.68;1.95;;;47.00;17.70;;;;;;6088583;29;20127;-78
2023/08/02 13:21:00;;;;;;;3.50;1.63;;;47.40;17.30;;;;;;6103181;29;20374;-79
2023/08/02 13:24:01;;;;;;;20.08;2.03;;;47.80;16.90;;;;;;6114093;29;20339;-78
2023/08/02 13:27:02;;;;;;;4.97;1.55;;;47.90;16.60;;;;;;6086323;29;20039;-76
2023/08/02 13:30:03;;;;;;;1.75;1.58;;;48.20;16.60;;;;;;6086924;29;20051;-77
2023/08/02 13:33:05;;;;;;;3.22;2.00;;;48.60;16.40;;;;;;6086046;29;20044;-77
2023/08/02 13:36:05;;;;;;;2.25;1.70;;;49.30;16.00;;;;;;6103804;29;20035;-77
2023/08/02 13:39:06;;;;;;;3.30;1.90;;;49.90;16.00;;;;;;6102463;29;20545;-76
2023/08/02 13:42:07;;;;;;;1.38;1.27;;;50.20;15.10;;;;;;6093463;29;20091;-77
2023/08/02 13:45:08;;;;;;;2.40;1.73;;;50.60;15.00;;;;;;6125108;29;20028;-77
2023/08/02 13:48:11;;;;;;;6.70;1.42;;;51.10;14.70;;;;;;6127053;29;20031;-78
2023/08/02 13:51:12;;;;;;;4.00;1.60;;;51.30;14.00;;;;;;6111281;29;20566;-77
2023/08/02 13:54:13;;;;;;;3.83;1.73;;;51.50;13.80;;;;;;6110400;29;20040;-76
2023/08/02 13:57:14;;;;;;;4.13;1.55;;;51.50;13.60;;;;;;6110119;29;20341;-77
2023/08/02 14:00:15;;;;;;;1.88;1.65;;;51.30;13.30;;;;;;6110759;29;20088;-77
2023/08/02 14:03:16;;;;;;;2.50;1.58;;;50.80;13.40;;;;;;6096250;29;20442;-78
2023/08/02 14:06:17;;;;;;;2.17;1.58;;;50.50;13.70;;;;;;6108530;29;20031;-78
2023/08/02 14:09:20;;;;;;;3.35;2.10;;;50.40;13.80;;;;;;6111901;29;20166;-77
2023/08/02 14:12:46;;;;;;;10.82;2.00;;;50.40;13.40;;;;;;6113795;29;20066;-78
2023/08/02 14:15:47;;;;;;;1.83;1.40;;;50.60;13.20;;;;;;6128922;29;20027;-79
2023/08/02 14:18:48;;;;;;;6.82;1.73;;;50.80;13.30;;;;;;6110631;29;20027;-79
2023/08/02 14:21:49;;;;;;;3.70;1.67;;;50.80;12.70;;;;;;6126070;29;20047;-79
2023/08/02 14:24:50;;;;;;;2.50;1.58;;;50.40;12.80;;;;;;6107842;29;20043;-77
2023/08/02 14:27:50;;;;;;;1.73;1.42;;;49.90;13.00;;;;;;6125556;29;20036;-79
2023/08/02 14:30:51;;;;;;;2.10;1.52;;;49.70;13.10;;;;;;6110697;29;20119;-79
2023/08/02 14:33:53;;;;;;;1.92;1.50;;;49.70;13.20;;;;;;6127543;29;20118;-79
2023/08/02 14:36:54;;;;;;;1.77;1.48;;;49.80;13.10;;;;;;6111761;29;20130;-78
2023/08/02 14:39:54;;;;;;;2.22;1.45;;;49.70;13.20;;;;;;6129243;29;20122;-78
2023/08/02 14:42:55;;;;;;;1.85;1.58;;;49.90;13.40;;;;;;6127931;29;20039;-76
2023/08/02 14:45:56;;;;;;;2.63;1.70;;;50.00;13.30;;;;;;6111412;29;20032;-76
2023/08/02 14:48:57;;;;;;;3.03;1.60;;;50.20;12.70;;;;;;6115513;29;20039;-78
2023/08/02 14:51:58;;;;;;;2.50;1.65;;;49.70;12.70;;;;;;6129499;29;20034;-76
2023/08/02 14:55:00;;;;;;;3.03;1.50;;;48.90;13.10;;;;;;6123351;29;20119;-75
2023/08/02 14:58:00;;;;;;;4.10;1.48;;;47.80;13.60;;;;;;6104723;29;20043;-78
2023/08/02 15:01:02;;;;;;;2.45;1.85;;;46.10;14.20;;;;;;6090384;29;20040;-76
2023/08/02 15:04:03;;;;;;;2.05;1.40;;;44.40;15.30;;;;;;6105798;29;20049;-77
2023/08/02 15:07:05;;;;;;;2.97;1.63;;;43.10;16.10;;;;;;6122961;29;20051;-77
2023/08/02 15:10:06;;;;;;;2.45;1.60;;;42.20;16.70;;;;;;6105604;29;20040;-76
2023/08/02 15:13:07;;;;;;;2.55;1.83;;;41.50;17.20;;;;;;6122435;29;20038;-77
2023/08/02 15:16:08;;;;;;;3.05;1.83;;;40.90;17.60;;;;;;6121996;29;20036;-75
2023/08/02 15:19:12;;;;;;;6.10;1.83;;;40.30;17.70;;;;;;6121075;29;20035;-76
2023/08/02 15:22:13;;;;;;;2.30;1.40;;;39.70;18.00;;;;;;6105310;29;20040;-75
2023/08/02 15:25:14;;;;;;;2.28;1.88;;;39.30;18.60;;;;;;6105004;29;20164;-76
2023/08/02 15:28:15;;;;;;;2.25;1.50;;;39.00;18.90;;;;;;6123203;29;20221;-77
2023/08/02 15:31:16;;;;;;;3.60;1.90;;;39.10;18.90;;;;;;6106554;29;20045;-77
2023/08/02 15:34:17;;;;;;;3.35;1.80;;;40.20;18.20;;;;;;6105986;29;20123;-78
2023/08/02 15:37:19;;;;;;;2.33;1.60;;;41.30;17.40;;;;;;6106102;29;20392;-78
2023/08/02 15:40:21;;;;;;;6.60;1.70;;;42.30;16.80;;;;;;6107189;29;20174;-78
2023/08/02 15:43:22;;;;;;;10.35;2.00;;;42.80;16.50;;;;;;6123984;29;20036;-79
2023/08/02 15:46:23;;;;;;;2.92;1.67;;;43.50;16.10;;;;;;6107218;29;20028;-77